Time;durP1;ratioP1;P1;durP2;ratioP2;P2;SDS_P1;SDS_P2;PMS_P1;PMS_P2;Temp;Humidity;BMP_temperature;BMP_pressure;BME280_temperature;BME280_humidity;BME280_pressure;Samples;Min_cycle;Max_cycle;Signal;HPM_P1;HPM_P2
2022/09/20 00:01:05;;;;;;;8.73;1.60;;;10.40;99.90;;;;;;5049943;28;20415;-63
2022/09/20 00:03:35;;;;;;;6.35;1.38;;;10.40;99.90;;;;;;5043172;28;20028;-63
2022/09/20 00:06:02;;;;;;;9.65;1.52;;;10.40;99.90;;;;;;5045884;28;20036;-63
2022/09/20 00:08:28;;;;;;;10.00;1.60;;;10.40;99.90;;;;;;5043655;28;20045;-68
2022/09/20 00:11:09;;;;;;;12.32;1.80;;;10.50;99.90;;;;;;5046842;28;20591;-69
2022/09/20 00:13:36;;;;;;;7.82;1.40;;;10.40;99.90;;;;;;5047246;28;20499;-63
2022/09/20 00:16:11;;;;;;;9.07;1.40;;;10.30;99.90;;;;;;5063522;28;20089;-63
2022/09/20 00:18:37;;;;;;;7.78;1.83;;;10.40;99.90;;;;;;5055140;28;20046;-62
2022/09/20 00:21:03;;;;;;;8.25;1.90;;;10.30;99.90;;;;;;5050662;28;20404;-64
2022/09/20 00:23:30;;;;;;;8.73;1.30;;;10.30;99.90;;;;;;5047747;28;20094;-62
2022/09/20 00:26:00;;;;;;;5.63;1.20;;;10.30;99.90;;;;;;5047574;28;20056;-63
2022/09/20 00:28:27;;;;;;;8.38;1.30;;;10.30;99.90;;;;;;5062089;28;20144;-67
2022/09/20 00:30:54;;;;;;;7.63;1.60;;;10.30;99.90;;;;;;5056857;28;20384;-63
2022/09/20 00:33:21;;;;;;;7.30;1.42;;;10.30;99.90;;;;;;5060718;28;20078;-63
2022/09/20 00:35:47;;;;;;;9.77;1.60;;;10.30;99.90;;;;;;5040682;28;20048;-64
2022/09/20 00:38:13;;;;;;;7.18;1.25;;;10.30;99.90;;;;;;5048600;28;20086;-64
2022/09/20 00:40:41;;;;;;;6.82;1.35;;;10.30;99.90;;;;;;5053694;28;20037;-63
2022/09/20 00:43:16;;;;;;;6.55;1.90;;;10.30;99.90;;;;;;5058508;28;20043;-63
2022/09/20 00:45:45;;;;;;;10.63;2.15;;;10.30;99.90;;;;;;5058359;28;20036;-62
2022/09/20 00:48:14;;;;;;;6.85;1.45;;;10.20;99.90;;;;;;5045670;28;20095;-65
2022/09/20 00:50:54;;;;;;;4.20;1.33;;;10.20;99.90;;;;;;5036367;28;20036;-63
2022/09/20 00:53:50;;;;;;;7.95;1.70;;;10.30;99.90;;;;;;5031205;28;20056;-62
2022/09/20 00:56:21;;;;;;;5.50;1.27;;;10.20;99.90;;;;;;5024497;28;20505;-63
2022/09/20 00:58:58;;;;;;;6.10;1.40;;;10.20;99.90;;;;;;5046432;28;20497;-62
2022/09/20 01:01:25;;;;;;;7.95;1.50;;;10.20;99.90;;;;;;5049580;28;20041;-63
2022/09/20 01:03:51;;;;;;;5.18;1.42;;;10.10;99.90;;;;;;5049459;28;20374;-63
2022/09/20 01:06:17;;;;;;;6.50;1.33;;;10.20;99.90;;;;;;5043708;28;20486;-63
2022/09/20 01:08:48;;;;;;;3.97;1.25;;;10.20;99.90;;;;;;5048359;28;20037;-63
2022/09/20 01:11:14;;;;;;;4.88;1.45;;;10.20;99.90;;;;;;5052019;28;20119;-64
2022/09/20 01:13:39;;;;;;;5.85;1.40;;;10.20;99.90;;;;;;5051473;28;20560;-65
2022/09/20 01:16:06;;;;;;;8.70;1.40;;;10.20;99.90;;;;;;5047718;28;20083;-70
2022/09/20 01:18:33;;;;;;;7.72;1.40;;;10.20;99.90;;;;;;5045712;28;20413;-63
2022/09/20 01:21:00;;;;;;;6.30;1.65;;;10.20;99.90;;;;;;5043034;28;20037;-62
2022/09/20 01:23:29;;;;;;;7.22;1.63;;;10.20;99.90;;;;;;5050795;28;20548;-63
2022/09/20 01:26:31;;;;;;;4.28;1.20;;;10.40;99.90;;;;;;5062294;28;20036;-62
2022/09/20 01:29:24;;;;;;;7.63;1.30;;;10.10;99.90;;;;;;5024629;28;20041;-62
2022/09/20 01:31:54;;;;;;;8.00;1.60;;;10.10;99.90;;;;;;5043772;28;20037;-65
2022/09/20 01:34:34;;;;;;;4.88;1.40;;;10.10;99.90;;;;;;5059585;28;20081;-64
2022/09/20 01:37:02;;;;;;;7.00;1.50;;;10.10;99.90;;;;;;5049513;28;20033;-64
2022/09/20 01:39:37;;;;;;;9.15;1.60;;;10.10;99.90;;;;;;5031947;28;20052;-64
2022/09/20 01:42:12;;;;;;;5.43;1.60;;;10.20;99.90;;;;;;5045425;28;20130;-64
2022/09/20 01:45:22;;;;;;;5.80;1.73;;;10.20;99.90;;;;;;5026800;28;20420;-64
2022/09/20 01:47:56;;;;;;;6.93;1.63;;;10.20;99.90;;;;;;4957047;28;20160;-64
2022/09/20 01:50:39;;;;;;;7.45;1.73;;;10.20;99.90;;;;;;4941417;28;20128;-65
2022/09/20 01:53:11;;;;;;;7.75;1.48;;;10.10;99.90;;;;;;5007630;28;20049;-65
2022/09/20 01:55:49;;;;;;;5.80;1.50;;;10.10;99.90;;;;;;5035861;28;20451;-64
2022/09/20 01:59:03;;;;;;;5.97;1.38;;;10.10;99.90;;;;;;5036296;28;20045;-64
2022/09/20 02:02:06;;;;;;;4.50;1.50;;;10.10;99.90;;;;;;5030228;28;20116;-64
2022/09/20 02:04:51;;;;;;;7.50;1.65;;;10.10;99.90;;;;;;5053004;28;20087;-65
2022/09/20 02:07:41;;;;;;;7.97;1.50;;;10.20;99.90;;;;;;5050481;28;20075;-64
2022/09/20 02:10:31;;;;;;;6.38;1.40;;;10.30;99.90;;;;;;5045805;28;20044;-64
2022/09/20 02:13:24;;;;;;;4.55;1.40;;;10.30;99.90;;;;;;5044545;28;20521;-64
2022/09/20 02:16:32;;;;;;;7.30;1.50;;;10.30;99.90;;;;;;5042986;28;20041;-64
2022/09/20 02:19:03;;;;;;;5.95;1.40;;;10.30;99.90;;;;;;5027063;28;20044;-64
2022/09/20 02:21:34;;;;;;;7.20;1.35;;;10.30;99.90;;;;;;5045829;28;20037;-64
2022/09/20 02:24:19;;;;;;;5.38;1.20;;;10.20;99.90;;;;;;5037297;28;20086;-64
2022/09/20 02:26:57;;;;;;;5.13;1.35;;;10.30;99.90;;;;;;5058774;28;20365;-64
2022/09/20 02:29:47;;;;;;;6.72;1.48;;;10.30;99.90;;;;;;5052117;28;20569;-64
2022/09/20 02:32:31;;;;;;;8.52;1.27;;;10.30;99.90;;;;;;5052885;28;20565;-64
2022/09/20 02:35:22;;;;;;;4.88;1.30;;;10.20;99.90;;;;;;5039875;28;20488;-64
2022/09/20 02:38:13;;;;;;;6.65;1.25;;;10.20;99.90;;;;;;5055919;28;20111;-64
2022/09/20 02:41:03;;;;;;;6.88;1.25;;;10.20;99.90;;;;;;5050481;28;20033;-65
2022/09/20 02:43:33;;;;;;;7.38;1.10;;;10.20;99.90;;;;;;5026427;28;20047;-65
2022/09/20 02:46:22;;;;;;;6.70;1.40;;;10.10;99.90;;;;;;5059599;28;20133;-65
2022/09/20 02:49:07;;;;;;;4.20;1.40;;;10.20;99.90;;;;;;5024787;28;20472;-64
2022/09/20 02:51:53;;;;;;;3.72;1.20;;;10.20;99.90;;;;;;5051859;28;20408;-64
2022/09/20 02:54:31;;;;;;;7.22;1.08;;;10.10;99.90;;;;;;5032315;28;20551;-65
2022/09/20 02:57:21;;;;;;;5.85;1.30;;;10.10;99.90;;;;;;5056489;28;20037;-64
2022/09/20 03:00:05;;;;;;;6.63;1.63;;;10.20;99.90;;;;;;5040777;28;20052;-64
2022/09/20 03:03:14;;;;;;;5.70;1.33;;;10.20;99.90;;;;;;5049901;28;20516;-65
2022/09/20 03:06:08;;;;;;;4.20;1.10;;;10.20;99.90;;;;;;5048814;28;20100;-64
2022/09/20 03:08:47;;;;;;;6.68;1.20;;;10.20;99.90;;;;;;5046504;28;20048;-64
2022/09/20 03:11:23;;;;;;;6.22;1.60;;;10.20;99.90;;;;;;5044637;28;20429;-64
2022/09/20 03:14:17;;;;;;;9.38;1.52;;;10.20;99.90;;;;;;5038742;28;20128;-64
2022/09/20 03:17:07;;;;;;;4.95;1.45;;;10.20;99.90;;;;;;5058553;28;20040;-64
2022/09/20 03:19:42;;;;;;;8.70;2.03;;;10.20;99.90;;;;;;5055166;28;20034;-65
2022/09/20 03:22:41;;;;;;;3.85;1.40;;;10.20;99.90;;;;;;5051730;28;20032;-64
2022/09/20 03:25:31;;;;;;;5.35;1.20;;;10.20;99.90;;;;;;5052175;28;20378;-64
2022/09/20 03:28:25;;;;;;;7.72;1.58;;;10.20;99.90;;;;;;5051178;28;20041;-65
2022/09/20 03:31:19;;;;;;;3.60;1.20;;;10.20;99.90;;;;;;5051243;28;20401;-65
2022/09/20 03:34:20;;;;;;;6.45;1.73;;;10.20;99.90;;;;;;5053344;28;20045;-65
2022/09/20 03:36:51;;;;;;;5.95;1.52;;;10.20;99.90;;;;;;4940124;29;20044;-65
2022/09/20 03:39:26;;;;;;;6.73;1.80;;;10.30;99.90;;;;;;5019430;28;20053;-64
2022/09/20 03:42:15;;;;;;;4.72;1.50;;;10.30;99.90;;;;;;5054228;28;20037;-64
2022/09/20 03:44:52;;;;;;;6.50;1.70;;;10.30;99.90;;;;;;5051287;28;20044;-64
2022/09/20 03:47:57;;;;;;;5.70;1.45;;;10.30;99.90;;;;;;5037272;28;20041;-65
2022/09/20 03:50:58;;;;;;;7.85;1.77;;;10.30;99.90;;;;;;5054173;28;20116;-64
2022/09/20 03:53:43;;;;;;;8.05;1.70;;;10.30;99.90;;;;;;5065938;28;20044;-65
2022/09/20 03:56:29;;;;;;;5.10;1.40;;;10.30;99.90;;;;;;5048688;28;20398;-65
2022/09/20 03:59:13;;;;;;;8.55;1.92;;;10.40;99.90;;;;;;5064379;28;20032;-65
2022/09/20 04:01:51;;;;;;;9.27;2.08;;;10.40;99.90;;;;;;5038338;28;20076;-65
2022/09/20 04:04:30;;;;;;;6.80;1.60;;;10.40;99.90;;;;;;5045941;28;20493;-65
2022/09/20 04:07:05;;;;;;;6.68;1.55;;;10.50;99.90;;;;;;5023824;28;20045;-64
2022/09/20 04:09:58;;;;;;;4.65;1.60;;;10.50;99.90;;;;;;5040341;28;20044;-64
2022/09/20 04:12:29;;;;;;;;;;;10.60;99.90;;;;;;5055621;28;20047;-64
2022/09/20 04:15:14;;;;;;;7.53;1.65;;;10.60;99.90;;;;;;5050330;28;19924;-65
2022/09/20 04:18:09;;;;;;;7.00;1.73;;;10.50;99.90;;;;;;5029824;28;20281;-65
2022/09/20 04:20:53;;;;;;;6.47;2.00;;;10.70;99.90;;;;;;5047874;28;20037;-65
2022/09/20 04:23:37;;;;;;;5.30;1.30;;;10.60;99.90;;;;;;5052901;28;20083;-65
2022/09/20 04:26:03;;;;;;;4.72;1.50;;;10.70;99.90;;;;;;5057028;28;20025;-64
2022/09/20 04:28:43;;;;;;;5.55;1.17;;;10.70;99.90;;;;;;5060117;28;20043;-64
2022/09/20 04:31:18;;;;;;;4.57;1.20;;;10.70;99.90;;;;;;5047600;28;20506;-65
2022/09/20 04:33:49;;;;;;;5.38;1.38;;;10.70;99.90;;;;;;5047464;28;20041;-65
2022/09/20 04:36:36;;;;;;;6.43;1.58;;;10.70;99.90;;;;;;5046859;28;20110;-65
2022/09/20 04:39:11;;;;;;;4.35;1.25;;;10.80;99.90;;;;;;5043075;28;20033;-64
2022/09/20 04:42:20;;;;;;;3.17;1.10;;;10.80;99.90;;;;;;5043163;28;20420;-65
2022/09/20 04:45:34;;;;;;;4.28;1.15;;;10.80;99.90;;;;;;5046073;28;20039;-65
2022/09/20 04:48:20;;;;;;;5.65;1.17;;;10.80;99.90;;;;;;5044594;28;20113;-64
2022/09/20 04:51:20;;;;;;;7.28;1.70;;;10.80;99.90;;;;;;5048220;28;20063;-65
2022/09/20 04:54:16;;;;;;;8.35;1.33;;;10.80;99.90;;;;;;5041020;28;20052;-64
2022/09/20 04:56:57;;;;;;;4.30;1.20;;;10.90;99.90;;;;;;5046373;28;20041;-65
2022/09/20 04:59:25;;;;;;;2.63;1.23;;;10.90;99.90;;;;;;5053606;28;20041;-64
2022/09/20 05:02:19;;;;;;;3.45;0.90;;;10.90;99.90;;;;;;5059197;28;20397;-65
2022/09/20 05:05:10;;;;;;;5.63;1.20;;;10.90;99.90;;;;;;5050258;28;20432;-65
2022/09/20 05:08:00;;;;;;;7.47;1.30;;;10.90;99.90;;;;;;5005835;28;20120;-64
2022/09/20 05:10:39;;;;;;;5.80;1.05;;;10.90;99.90;;;;;;5023383;28;20045;-65
2022/09/20 05:13:36;;;;;;;7.55;1.10;;;10.90;99.90;;;;;;5043522;28;20039;-64
2022/09/20 05:16:11;;;;;;;4.32;1.27;;;10.80;99.90;;;;;;5040535;28;20087;-64
2022/09/20 05:18:58;;;;;;;4.63;1.23;;;10.80;99.90;;;;;;5042708;28;20045;-64
2022/09/20 05:21:56;;;;;;;5.38;1.10;;;10.80;99.90;;;;;;5040842;28;20489;-65
2022/09/20 05:24:31;;;;;;;3.78;0.95;;;10.80;99.90;;;;;;5026422;28;20153;-65
2022/09/20 05:27:06;;;;;;;3.97;0.90;;;10.70;99.90;;;;;;5049007;28;20036;-65
2022/09/20 05:29:50;;;;;;;3.20;0.98;;;10.70;99.90;;;;;;5031373;28;20443;-65
2022/09/20 05:32:40;;;;;;;5.28;1.30;;;10.70;99.90;;;;;;5038022;28;20051;-65
2022/09/20 05:35:54;;;;;;;11.07;1.70;;;10.70;99.90;;;;;;5040196;28;20619;-65
2022/09/20 05:38:39;;;;;;;;;;;10.70;99.90;;;;;;4965933;28;20047;-65
2022/09/20 05:41:23;;;;;;;8.05;1.50;;;10.70;99.90;;;;;;5035459;28;19921;-65
2022/09/20 05:44:05;;;;;;;3.63;1.10;;;10.70;99.90;;;;;;5038893;28;20044;-65
2022/09/20 05:46:40;;;;;;;3.38;1.25;;;10.70;99.90;;;;;;5043913;28;20048;-65
2022/09/20 05:49:35;;;;;;;4.22;1.10;;;10.70;99.90;;;;;;5041932;28;20083;-65
2022/09/20 05:52:25;;;;;;;3.65;1.20;;;10.70;99.90;;;;;;5045233;28;20033;-65
2022/09/20 05:55:20;;;;;;;3.65;1.00;;;10.70;99.90;;;;;;5046791;28;20460;-65
2022/09/20 05:58:22;;;;;;;3.35;1.05;;;10.70;99.90;;;;;;4996337;28;20487;-65
2022/09/20 06:00:51;;;;;;;5.32;2.08;;;10.70;99.90;;;;;;5029889;28;20043;-65
2022/09/20 06:03:35;;;;;;;7.95;3.47;;;10.70;99.90;;;;;;5050630;28;20072;-65
2022/09/20 06:06:31;;;;;;;5.57;2.30;;;10.70;99.90;;;;;;5045436;28;20043;-65
2022/09/20 06:09:08;;;;;;;5.82;2.38;;;10.70;99.90;;;;;;5029937;28;20119;-65
2022/09/20 06:11:52;;;;;;;3.08;1.48;;;10.70;99.90;;;;;;5048188;28;20072;-65
2022/09/20 06:14:37;;;;;;;5.18;1.48;;;10.70;99.90;;;;;;5051080;28;20163;-65
2022/09/20 06:17:26;;;;;;;6.75;1.92;;;10.70;99.90;;;;;;5051053;28;20033;-65
2022/09/20 06:20:14;;;;;;;4.45;3.55;;;10.70;99.90;;;;;;5047956;28;20037;-65
2022/09/20 06:22:47;;;;;;;7.43;2.72;;;10.80;99.90;;;;;;5051895;28;20076;-65
2022/09/20 06:25:30;;;;;;;8.48;2.50;;;10.80;99.90;;;;;;5056870;28;20123;-65
2022/09/20 06:28:05;;;;;;;5.38;2.50;;;10.90;99.90;;;;;;5039848;28;20111;-65
2022/09/20 06:30:39;;;;;;;6.60;2.00;;;10.90;99.90;;;;;;5040306;28;20485;-65
2022/09/20 06:33:05;;;;;;;9.05;2.13;;;11.00;99.90;;;;;;5047990;28;20492;-65
2022/09/20 06:35:40;;;;;;;4.18;1.83;;;11.00;99.90;;;;;;5057495;28;20044;-65
2022/09/20 06:41:33;;;;;;;8.65;2.10;;;11.20;99.90;;;;;;4948923;29;20077;-65
2022/09/20 06:44:00;;;;;;;5.40;2.03;;;11.20;99.90;;;;;;5057566;28;20496;-65
2022/09/20 06:46:31;;;;;;;4.53;2.10;;;11.20;99.90;;;;;;5059623;28;20488;-65
2022/09/20 06:48:58;;;;;;;4.37;1.70;;;11.30;99.90;;;;;;5032945;28;20044;-65
2022/09/20 06:51:26;;;;;;;4.40;1.80;;;11.30;99.90;;;;;;5055755;28;20280;-65
2022/09/20 06:53:53;;;;;;;6.38;2.35;;;11.30;99.90;;;;;;5046251;28;20037;-65
2022/09/20 06:56:22;;;;;;;5.30;2.45;;;11.40;99.90;;;;;;5026278;28;20128;-65
2022/09/20 06:58:48;;;;;;;7.75;2.08;;;11.40;99.90;;;;;;5047648;28;20040;-65
2022/09/20 07:01:14;;;;;;;7.45;1.90;;;11.50;99.90;;;;;;5051096;28;20120;-65
2022/09/20 07:03:40;;;;;;;4.22;1.80;;;11.50;99.90;;;;;;5051889;28;20104;-65
2022/09/20 07:06:07;;;;;;;6.63;1.80;;;11.60;99.90;;;;;;5050145;28;20155;-65
2022/09/20 07:08:33;;;;;;;6.72;1.83;;;11.50;99.90;;;;;;5052075;28;20032;-65
2022/09/20 07:11:03;;;;;;;7.93;1.55;;;11.60;99.90;;;;;;5048864;28;20124;-65
2022/09/20 07:13:29;;;;;;;7.00;1.63;;;11.60;99.90;;;;;;5051481;28;20032;-65
2022/09/20 07:16:10;;;;;;;7.78;1.60;;;11.60;99.90;;;;;;5053610;28;20516;-65
2022/09/20 07:18:35;;;;;;;4.93;1.50;;;11.60;99.90;;;;;;5046558;28;20033;-65
2022/09/20 07:21:01;;;;;;;5.63;1.60;;;11.60;99.90;;;;;;5037237;28;20044;-65
2022/09/20 07:23:31;;;;;;;10.45;2.10;;;11.70;99.90;;;;;;5034364;28;20353;-65
2022/09/20 07:25:59;;;;;;;3.40;1.20;;;11.70;99.90;;;;;;5047755;28;20041;-65
2022/09/20 07:28:30;;;;;;;7.20;1.35;;;11.70;99.90;;;;;;5046186;28;21519;-65
2022/09/20 07:30:55;;;;;;;7.85;1.73;;;11.80;99.90;;;;;;5042959;28;20033;-65
2022/09/20 07:33:23;;;;;;;16.80;10.32;;;11.80;99.90;;;;;;5043448;28;20041;-64
2022/09/20 07:35:53;;;;;;;6.93;3.30;;;11.80;99.90;;;;;;5028684;28;20041;-63
2022/09/20 07:38:20;;;;;;;5.85;3.10;;;11.90;99.90;;;;;;5048623;28;20070;-71
2022/09/20 07:40:58;;;;;;;7.90;2.60;;;11.80;99.90;;;;;;5051197;28;20033;-75
2022/09/20 07:43:24;;;;;;;6.13;2.10;;;11.80;99.90;;;;;;5048761;28;20633;-63
2022/09/20 07:45:54;;;;;;;6.95;1.92;;;11.80;99.90;;;;;;5045241;28;20036;-71
2022/09/20 07:48:24;;;;;;;7.78;2.10;;;11.90;99.90;;;;;;5049411;28;20149;-69
2022/09/20 07:51:01;;;;;;;7.88;2.08;;;11.90;99.90;;;;;;5061480;28;20037;-71
2022/09/20 07:53:27;;;;;;;8.05;1.95;;;11.90;99.90;;;;;;5048061;28;20025;-63
2022/09/20 07:56:04;;;;;;;4.40;1.70;;;11.90;99.90;;;;;;5044373;28;20097;-70
2022/09/20 07:58:32;;;;;;;8.77;5.10;;;11.90;99.90;;;;;;5048063;28;20067;-64
2022/09/20 08:01:01;;;;;;;7.82;3.90;;;12.00;99.90;;;;;;5025829;28;20041;-68
2022/09/20 08:03:30;;;;;;;5.38;2.97;;;12.10;99.90;;;;;;5040011;28;20040;-72
2022/09/20 08:06:05;;;;;;;8.35;3.30;;;12.10;99.90;;;;;;5024356;28;20388;-64
2022/09/20 08:08:36;;;;;;;14.18;3.17;;;12.20;99.90;;;;;;5046444;28;20082;-66
2022/09/20 08:11:07;;;;;;;6.50;2.10;;;12.20;99.90;;;;;;5045760;28;20037;-64
2022/09/20 08:13:37;;;;;;;6.33;1.70;;;12.30;99.90;;;;;;5051152;28;20457;-73
2022/09/20 08:16:04;;;;;;;5.90;1.50;;;12.30;99.90;;;;;;5046823;28;20037;-62
2022/09/20 08:18:31;;;;;;;13.77;7.25;;;12.40;99.90;;;;;;5037176;28;20471;-67
2022/09/20 08:21:05;;;;;;;5.28;2.40;;;12.40;99.90;;;;;;5039141;28;20082;-63
2022/09/20 08:23:33;;;;;;;11.55;2.60;;;12.50;99.90;;;;;;5029128;28;20400;-62
2022/09/20 08:25:59;;;;;;;8.75;2.30;;;12.60;99.90;;;;;;5039868;28;20037;-69
2022/09/20 08:28:25;;;;;;;11.13;2.30;;;12.60;99.90;;;;;;5041325;28;20052;-64
2022/09/20 08:30:50;;;;;;;8.40;2.60;;;12.70;99.90;;;;;;5045749;28;20124;-63
2022/09/20 08:33:16;;;;;;;7.38;3.55;;;12.90;99.90;;;;;;5057453;28;20120;-63
2022/09/20 08:35:42;;;;;;;5.22;2.72;;;13.00;99.90;;;;;;5052755;28;20447;-65
2022/09/20 08:38:07;;;;;;;8.95;2.42;;;13.00;99.90;;;;;;5044553;28;20041;-71
2022/09/20 08:40:35;;;;;;;8.40;2.70;;;13.00;99.90;;;;;;5045244;28;20124;-66
2022/09/20 08:43:01;;;;;;;8.50;2.65;;;12.90;99.90;;;;;;5041737;28;20089;-66
2022/09/20 08:45:27;;;;;;;8.25;1.60;;;13.00;99.90;;;;;;5042635;28;20041;-64
2022/09/20 08:47:59;;;;;;;6.28;1.23;;;13.10;99.90;;;;;;5027388;28;20033;-63
2022/09/20 08:50:25;;;;;;;6.00;2.03;;;13.20;99.90;;;;;;5047825;28;20051;-64
2022/09/20 08:52:55;;;;;;;9.10;1.40;;;13.20;99.90;;;;;;5047846;28;20037;-63
2022/09/20 08:55:30;;;;;;;9.68;1.90;;;13.30;99.90;;;;;;5030585;28;20396;-68
2022/09/20 08:57:58;;;;;;;6.22;1.30;;;13.40;99.90;;;;;;5050402;28;20435;-62
2022/09/20 09:00:28;;;;;;;6.63;1.42;;;13.50;99.90;;;;;;5048708;28;20532;-63
2022/09/20 09:02:57;;;;;;;6.93;1.48;;;13.50;99.90;;;;;;5045267;28;20047;-66
2022/09/20 09:05:36;;;;;;;6.63;1.45;;;13.50;99.90;;;;;;5022477;28;20041;-64
2022/09/20 09:08:08;;;;;;;6.13;1.20;;;13.60;99.90;;;;;;5045578;28;20029;-64
2022/09/20 09:10:38;;;;;;;5.93;1.65;;;13.70;99.90;;;;;;5046618;28;20079;-63
2022/09/20 09:13:05;;;;;;;25.40;14.27;;;13.70;99.90;;;;;;5046477;28;20040;-66
2022/09/20 09:15:36;;;;;;;167.10;86.50;;;13.80;99.90;;;;;;5044128;28;20033;-65
2022/09/20 09:18:08;;;;;;;25.50;15.52;;;13.90;99.90;;;;;;5040388;28;20401;-63
2022/09/20 09:20:43;;;;;;;23.38;13.88;;;13.90;99.90;;;;;;5044822;28;20374;-63
2022/09/20 09:23:24;;;;;;;11.23;4.72;;;14.00;99.90;;;;;;5028570;28;20063;-62
2022/09/20 09:25:51;;;;;;;9.80;2.97;;;13.90;99.90;;;;;;5027190;28;20054;-63
2022/09/20 09:28:22;;;;;;;7.80;4.22;;;13.90;99.90;;;;;;5028631;28;20509;-68
2022/09/20 09:30:48;;;;;;;8.85;2.65;;;14.00;99.90;;;;;;5044383;28;20029;-63
2022/09/20 09:33:32;;;;;;;6.03;2.17;;;14.10;99.90;;;;;;5044847;28;20040;-63
2022/09/20 09:36:13;;;;;;;10.07;2.25;;;14.30;99.90;;;;;;5031632;28;20481;-64
2022/09/20 09:38:43;;;;;;;6.90;1.88;;;14.50;99.90;;;;;;5049468;28;20044;-63
2022/09/20 09:41:25;;;;;;;7.70;2.10;;;14.70;99.90;;;;;;5051264;28;20041;-63
2022/09/20 09:44:17;;;;;;;4.68;1.10;;;14.90;99.90;;;;;;5047999;28;20029;-63
2022/09/20 09:46:43;;;;;;;;;;;15.20;99.90;;;;;;5048682;28;20497;-63
2022/09/20 09:49:21;;;;;;;5.45;1.20;;;15.60;99.90;;;;;;5051587;28;19917;-63
2022/09/20 09:52:06;;;;;;;6.53;1.30;;;15.80;99.90;;;;;;5050904;28;20051;-63
2022/09/20 09:54:35;;;;;;;5.63;1.17;;;16.00;99.90;;;;;;5051983;28;20401;-63
2022/09/20 09:57:07;;;;;;;6.22;1.08;;;15.90;99.90;;;;;;5047583;28;20094;-63
2022/09/20 09:59:53;;;;;;;4.18;1.20;;;15.70;99.90;;;;;;5047025;28;20166;-64
2022/09/20 10:02:39;;;;;;;4.80;1.17;;;15.60;99.90;;;;;;5047168;28;20166;-63
2022/09/20 10:05:22;;;;;;;5.60;1.58;;;15.30;99.90;;;;;;5050366;28;20144;-63
2022/09/20 10:07:58;;;;;;;6.15;1.50;;;15.30;99.90;;;;;;5033422;28;20045;-68
2022/09/20 10:10:49;;;;;;;6.95;4.15;;;15.20;99.90;;;;;;5044788;28;20052;-63
2022/09/20 10:13:31;;;;;;;6.28;1.95;;;15.40;99.90;;;;;;5046558;28;20044;-74
2022/09/20 10:16:11;;;;;;;2.95;1.38;;;15.70;99.90;;;;;;5018654;28;20444;-66
2022/09/20 10:18:46;;;;;;;5.97;1.50;;;15.70;99.90;;;;;;5039274;28;20041;-66
2022/09/20 10:21:43;;;;;;;7.07;1.10;;;15.50;99.90;;;;;;5050968;28;20501;-65
2022/09/20 10:24:21;;;;;;;8.45;1.73;;;15.30;99.90;;;;;;5003951;28;20153;-63
2022/09/20 10:26:53;;;;;;;6.82;2.72;;;15.20;99.90;;;;;;5031220;28;20041;-72
2022/09/20 10:29:52;;;;;;;8.52;3.72;;;15.20;99.90;;;;;;5047768;28;20558;-64
2022/09/20 10:32:36;;;;;;;6.72;2.10;;;15.10;99.90;;;;;;5034175;28;20044;-64
2022/09/20 10:35:19;;;;;;;5.05;1.58;;;15.10;99.90;;;;;;5051190;28;20086;-72
2022/09/20 10:38:09;;;;;;;5.45;2.17;;;15.10;99.90;;;;;;5032313;28;20044;-63
2022/09/20 10:44:04;;;;;;;8.07;1.83;;;15.30;99.90;;;;;;5029281;28;20045;-64
2022/09/20 10:46:58;;;;;;;6.93;2.20;;;15.30;99.90;;;;;;5046430;28;20158;-65
2022/09/20 10:49:42;;;;;;;4.80;1.83;;;15.20;99.90;;;;;;5053289;28;20041;-72
2022/09/20 10:52:26;;;;;;;5.75;1.25;;;15.00;99.90;;;;;;5050698;28;20036;-64
2022/09/20 10:55:05;;;;;;;4.82;1.70;;;14.80;99.90;;;;;;5049367;28;20037;-67
2022/09/20 10:58:14;;;;;;;4.05;1.60;;;14.50;99.90;;;;;;5050660;28;20120;-63
2022/09/20 11:01:10;;;;;;;3.33;1.65;;;14.30;99.90;;;;;;5028577;28;20528;-63
2022/09/20 11:03:54;;;;;;;9.55;2.33;;;14.20;99.90;;;;;;5050804;28;20050;-68
2022/09/20 11:06:23;;;;;;;6.70;2.08;;;14.20;99.90;;;;;;5052363;28;20091;-68
2022/09/20 11:08:55;;;;;;;5.05;3.10;;;14.10;99.90;;;;;;5049921;28;20041;-63
2022/09/20 11:12:10;;;;;;;5.38;3.00;;;14.10;99.90;;;;;;5044224;28;20037;-64
2022/09/20 11:14:48;;;;;;;6.18;2.83;;;14.20;99.90;;;;;;5031024;28;20056;-62
2022/09/20 11:17:40;;;;;;;6.90;2.72;;;14.30;99.90;;;;;;5049957;28;20045;-63
2022/09/20 11:20:19;;;;;;;6.90;2.65;;;14.40;99.90;;;;;;5049686;28;20037;-66
2022/09/20 11:22:56;;;;;;;4.65;2.40;;;14.50;99.90;;;;;;5049380;28;20041;-63
2022/09/20 11:25:50;;;;;;;4.07;1.95;;;14.60;99.90;;;;;;5050565;28;20033;-63
2022/09/20 11:28:23;;;;;;;4.70;1.83;;;14.60;99.90;;;;;;5044140;28;20489;-63
2022/09/20 11:31:12;;;;;;;6.45;1.45;;;14.70;99.90;;;;;;5017652;28;20558;-64
2022/09/20 11:33:48;;;;;;;2.85;1.10;;;14.80;99.90;;;;;;5026572;28;20053;-63
2022/09/20 11:36:38;;;;;;;5.82;1.10;;;14.90;99.90;;;;;;5050718;28;20048;-63
2022/09/20 11:39:31;;;;;;;3.13;1.10;;;15.00;99.90;;;;;;5048653;28;20041;-63
2022/09/20 11:42:00;;;;;;;4.15;1.17;;;15.10;99.90;;;;;;5046663;28;20033;-63
2022/09/20 11:44:26;;;;;;;6.38;1.30;;;15.20;99.90;;;;;;5029983;28;20053;-63
2022/09/20 11:47:00;;;;;;;3.67;1.27;;;15.30;99.90;;;;;;5051929;28;20086;-63
2022/09/20 11:49:55;;;;;;;5.65;1.40;;;15.50;99.90;;;;;;5028378;28;20803;-63
2022/09/20 11:52:34;;;;;;;4.70;1.30;;;15.50;99.90;;;;;;5046499;28;20043;-63
2022/09/20 11:55:13;;;;;;;5.40;1.20;;;15.60;99.90;;;;;;5046165;28;20120;-63
2022/09/20 11:57:39;;;;;;;5.88;1.50;;;15.60;99.90;;;;;;5047404;28;20072;-62
2022/09/20 12:00:07;;;;;;;4.40;1.08;;;15.70;99.90;;;;;;5055555;28;20585;-63
2022/09/20 12:02:48;;;;;;;5.88;1.23;;;15.60;99.90;;;;;;5043003;28;20059;-63
2022/09/20 12:05:28;;;;;;;4.80;1.30;;;15.60;99.90;;;;;;5043564;28;20107;-62
2022/09/20 12:07:57;;;;;;;5.57;1.35;;;15.50;99.90;;;;;;5039836;28;20150;-65
2022/09/20 12:10:33;;;;;;;5.25;1.30;;;15.50;99.90;;;;;;5043895;28;20037;-63
2022/09/20 12:13:02;;;;;;;6.82;2.05;;;15.50;99.90;;;;;;5045369;28;20056;-63
2022/09/20 12:15:35;;;;;;;7.32;1.98;;;15.40;99.90;;;;;;5043047;28;20444;-66
2022/09/20 12:18:26;;;;;;;4.15;1.65;;;15.30;99.90;;;;;;5050598;28;20485;-65
2022/09/20 12:20:57;;;;;;;5.60;1.30;;;15.30;99.90;;;;;;5044254;28;20044;-66
2022/09/20 12:23:43;;;;;;;3.45;1.33;;;15.20;99.90;;;;;;5055242;28;20501;-65
2022/09/20 12:26:19;;;;;;;7.28;1.10;;;15.10;99.90;;;;;;5013583;28;20097;-62
2022/09/20 12:28:50;;;;;;;4.30;1.23;;;14.90;99.90;;;;;;5046811;28;20047;-63
2022/09/20 12:31:24;;;;;;;5.50;1.00;;;14.80;99.90;;;;;;5049830;28;20040;-63
2022/09/20 12:34:12;;;;;;;3.90;1.20;;;14.60;99.90;;;;;;5047853;28;20041;-63
2022/09/20 12:36:43;;;;;;;6.13;1.15;;;14.40;99.90;;;;;;5024257;28;20041;-63
2022/09/20 12:39:11;;;;;;;5.30;1.27;;;14.40;99.90;;;;;;5044745;28;20041;-67
2022/09/20 12:41:55;;;;;;;4.70;1.23;;;14.40;99.90;;;;;;5046019;28;20041;-64
2022/09/20 12:44:49;;;;;;;4.32;1.20;;;14.40;99.90;;;;;;5029109;28;20118;-66
2022/09/20 12:47:16;;;;;;;4.93;1.17;;;14.50;99.90;;;;;;5031990;28;20400;-63
2022/09/20 12:52:49;;;;;;;3.35;1.30;;;14.60;99.90;;;;;;5040983;28;20128;-63
2022/09/20 12:55:27;;;;;;;3.65;1.10;;;14.80;99.90;;;;;;5051309;28;20052;-62
2022/09/20 12:58:01;;;;;;;4.57;1.30;;;15.00;99.90;;;;;;5056231;28;20037;-62
2022/09/20 13:00:43;;;;;;;5.80;2.13;;;15.10;99.90;;;;;;5047340;28;20068;-65
2022/09/20 13:03:33;;;;;;;5.57;1.50;;;15.30;99.90;;;;;;5049030;28;20278;-62
2022/09/20 13:08:35;;;;;;;5.90;1.40;;;15.70;99.90;;;;;;5047876;28;20381;-62
2022/09/20 13:11:08;;;;;;;5.90;1.10;;;15.90;99.90;;;;;;5044308;28;20041;-68
2022/09/20 13:17:26;;;;;;;5.13;1.48;;;16.20;99.90;;;;;;5039141;28;20044;-63
2022/09/20 13:19:52;;;;;;;5.72;1.80;;;16.50;99.90;;;;;;5048123;28;20056;-64
2022/09/20 13:22:37;;;;;;;8.75;4.97;;;16.50;99.90;;;;;;5045983;28;20477;-62
2022/09/20 13:25:06;;;;;;;10.27;3.20;;;16.50;99.90;;;;;;5052004;28;20036;-65
2022/09/20 13:27:39;;;;;;;7.07;2.45;;;16.50;99.90;;;;;;5049540;28;20033;-63
2022/09/20 13:30:21;;;;;;;7.15;1.83;;;16.40;99.90;;;;;;5065307;28;20504;-66
2022/09/20 13:32:49;;;;;;;9.30;1.80;;;16.40;99.90;;;;;;5058303;28;20044;-63
2022/09/20 13:35:22;;;;;;;5.35;1.67;;;16.40;99.90;;;;;;5045231;28;20037;-66
2022/09/20 13:38:06;;;;;;;5.03;1.60;;;16.40;99.90;;;;;;5048272;28;20126;-64
2022/09/20 13:40:48;;;;;;;4.88;1.25;;;16.40;99.90;;;;;;5034801;28;21553;-65
2022/09/20 13:43:27;;;;;;;5.25;1.15;;;16.40;99.90;;;;;;5027210;28;20072;-63
2022/09/20 13:46:28;;;;;;;4.15;1.25;;;16.40;99.90;;;;;;5039183;28;20033;-65
2022/09/20 13:49:20;;;;;;;3.20;1.00;;;16.50;99.90;;;;;;5038552;28;20047;-64
2022/09/20 13:51:47;;;;;;;6.28;1.20;;;16.50;99.90;;;;;;5047458;28;20056;-68
2022/09/20 13:54:32;;;;;;;4.82;1.27;;;16.50;99.90;;;;;;5016602;28;20393;-69
2022/09/20 13:57:02;;;;;;;8.00;2.00;;;16.60;99.90;;;;;;5046165;28;20045;-62
2022/09/20 13:59:35;;;;;;;3.97;1.33;;;16.80;99.90;;;;;;5041782;28;20039;-62
2022/09/20 14:02:01;;;;;;;5.97;1.70;;;16.90;99.90;;;;;;5049778;28;20029;-67